createdAt,value
2018-12-08T00:01:33.815Z,9.40
2018-12-08T00:04:04.600Z,9.31
2018-12-08T00:06:33.042Z,9.29
2018-12-08T00:09:03.771Z,9.18
2018-12-08T00:11:32.204Z,9.12
2018-12-08T00:14:00.615Z,9.10
2018-12-08T00:16:29.008Z,9.00
2018-12-08T00:18:57.456Z,8.86
2018-12-08T00:21:25.862Z,8.79
2018-12-08T00:23:54.289Z,8.76
2018-12-08T00:26:22.745Z,8.74
2018-12-08T00:28:51.177Z,8.74
2018-12-08T00:31:30.832Z,8.70
2018-12-08T00:33:59.501Z,8.72
2018-12-08T00:36:27.913Z,8.70
2018-12-08T00:38:56.434Z,8.55
2018-12-08T00:41:24.914Z,8.50
2018-12-08T00:43:53.329Z,8.46
2018-12-08T00:46:21.724Z,8.42
2018-12-08T00:48:50.179Z,8.29
2018-12-08T00:51:18.589Z,8.23
2018-12-08T00:53:46.980Z,8.11
2018-12-08T00:56:15.404Z,8.04
2018-12-08T00:58:43.793Z,7.92
2018-12-08T01:01:12.192Z,7.94
2018-12-08T01:03:40.616Z,7.97
2018-12-08T01:06:09.040Z,7.98
2018-12-08T01:08:37.453Z,7.99
2018-12-08T01:11:06.125Z,8.02
2018-12-08T01:13:34.560Z,8.11
2018-12-08T01:16:05.364Z,8.08
2018-12-08T01:18:33.801Z,8.04
2018-12-08T01:21:05.322Z,8.16
2018-12-08T01:23:33.749Z,8.07
2018-12-08T01:26:04.629Z,8.11
2018-12-08T01:28:33.076Z,8.09
2018-12-08T01:31:04.337Z,8.10
2018-12-08T01:33:32.773Z,8.00
2018-12-08T01:36:03.634Z,7.97
2018-12-08T01:38:32.088Z,7.95
2018-12-08T01:41:00.483Z,7.87
2018-12-08T01:43:28.872Z,7.79
2018-12-08T01:45:57.308Z,7.70
2018-12-08T01:48:25.731Z,7.73
2018-12-08T01:50:54.133Z,7.71
2018-12-08T01:53:22.577Z,7.69
2018-12-08T01:55:51.017Z,7.72
2018-12-08T01:58:19.424Z,7.71
2018-12-08T02:00:47.846Z,7.71
2018-12-08T02:03:16.245Z,7.67
2018-12-08T02:05:44.667Z,7.61
2018-12-08T02:08:13.084Z,7.55
2018-12-08T02:10:41.679Z,7.62
2018-12-08T02:13:10.126Z,7.63
2018-12-08T02:15:38.536Z,7.58
2018-12-08T02:18:06.998Z,7.52
2018-12-08T02:20:35.698Z,7.36
2018-12-08T02:23:05.077Z,7.24
2018-12-08T02:25:33.496Z,7.20
2018-12-08T02:28:06.101Z,7.11
2018-12-08T02:30:34.505Z,7.10
2018-12-08T02:33:06.166Z,7.11
2018-12-08T02:35:34.578Z,7.07
2018-12-08T02:38:05.130Z,7.09
2018-12-08T02:40:33.540Z,7.15
2018-12-08T02:43:04.565Z,7.15
2018-12-08T02:45:32.993Z,7.21
2018-12-08T02:48:03.701Z,7.16
2018-12-08T02:50:32.112Z,7.07
2018-12-08T02:53:00.528Z,7.03
2018-12-08T02:55:28.933Z,6.99
2018-12-08T02:57:57.348Z,7.03
2018-12-08T03:00:25.751Z,7.05
2018-12-08T03:02:54.185Z,7.08
2018-12-08T03:05:22.588Z,7.13
2018-12-08T03:07:51.014Z,7.15
2018-12-08T03:10:19.625Z,7.18
2018-12-08T03:12:48.088Z,7.09
2018-12-08T03:15:16.499Z,6.97
2018-12-08T03:17:45.016Z,6.97
2018-12-08T03:20:13.450Z,7.00
2018-12-08T03:22:41.878Z,7.04
2018-12-08T03:25:10.304Z,7.05
2018-12-08T03:27:38.761Z,6.99
2018-12-08T03:30:07.609Z,6.99
2018-12-08T03:32:36.050Z,7.03
2018-12-08T03:35:05.355Z,6.95
2018-12-08T03:37:33.803Z,6.96
2018-12-08T03:40:05.253Z,6.89
2018-12-08T03:42:33.655Z,6.92
2018-12-08T03:45:05.381Z,6.78
2018-12-08T03:47:33.965Z,6.73
2018-12-08T03:50:04.387Z,6.71
2018-12-08T03:52:32.801Z,6.69
2018-12-08T03:55:03.767Z,6.70
2018-12-08T03:57:32.276Z,6.73
2018-12-08T04:00:00.727Z,6.69
2018-12-08T04:02:29.206Z,6.66
2018-12-08T04:04:57.639Z,6.59
2018-12-08T04:07:26.037Z,6.53
2018-12-08T04:09:54.476Z,6.61
2018-12-08T04:12:23.077Z,6.43
2018-12-08T04:14:51.528Z,6.26
2018-12-08T04:17:19.919Z,6.17
2018-12-08T04:19:48.360Z,6.13
2018-12-08T04:22:16.753Z,6.10
2018-12-08T04:24:45.185Z,6.08
2018-12-08T04:27:13.626Z,6.03
2018-12-08T04:29:42.064Z,6.09
2018-12-08T04:32:10.472Z,6.11
2018-12-08T04:34:38.912Z,6.17
2018-12-08T04:37:07.295Z,6.27
2018-12-08T04:39:35.732Z,6.27
2018-12-08T04:42:05.036Z,6.36
2018-12-08T04:44:33.468Z,6.27
2018-12-08T04:47:03.474Z,6.32
2018-12-08T04:49:31.904Z,6.30
2018-12-08T04:52:00.283Z,6.33
2018-12-08T04:54:28.695Z,6.33
2018-12-08T04:56:57.092Z,6.28
2018-12-08T04:59:25.541Z,6.23
2018-12-08T05:01:53.919Z,6.21
2018-12-08T05:04:22.325Z,6.18
2018-12-08T05:06:50.732Z,6.17
2018-12-08T05:09:19.179Z,6.21
2018-12-08T05:11:47.580Z,6.21
2018-12-08T05:14:15.977Z,6.19
2018-12-08T05:16:44.404Z,6.14
2018-12-08T05:19:12.800Z,6.14
2018-12-08T05:21:41.247Z,6.18
2018-12-08T05:24:09.639Z,6.18
2018-12-08T05:26:38.204Z,6.18
2018-12-08T05:29:06.607Z,6.15
2018-12-08T05:31:35.040Z,6.12
2018-12-08T05:34:05.313Z,6.20
2018-12-08T05:36:33.752Z,6.17
2018-12-08T05:39:04.755Z,6.16
2018-12-08T05:41:33.185Z,6.20
2018-12-08T05:44:04.374Z,6.27
2018-12-08T05:46:32.808Z,6.23
2018-12-08T05:49:03.685Z,6.23
2018-12-08T05:51:32.124Z,6.20
2018-12-08T05:54:00.518Z,6.21
2018-12-08T05:56:29.064Z,6.18
2018-12-08T05:58:57.463Z,6.18
2018-12-08T06:01:25.913Z,6.17
2018-12-08T06:03:54.540Z,6.17
2018-12-08T06:06:22.960Z,6.22
2018-12-08T06:08:51.364Z,6.23
2018-12-08T06:11:19.779Z,6.25
2018-12-08T06:13:48.184Z,6.13
2018-12-08T06:16:16.611Z,6.16
2018-12-08T06:18:45.003Z,6.23
2018-12-08T06:21:13.420Z,6.19
2018-12-08T06:23:41.824Z,6.16
2018-12-08T06:26:18.109Z,6.12
2018-12-08T06:28:49.221Z,6.12
2018-12-08T06:31:17.641Z,6.13
2018-12-08T06:33:46.032Z,6.19
2018-12-08T06:36:14.465Z,6.11
2018-12-08T06:38:42.873Z,6.14
2018-12-08T06:41:11.292Z,6.15
2018-12-08T06:43:39.681Z,6.11
2018-12-08T06:46:08.101Z,6.07
2018-12-08T06:48:36.511Z,6.08
2018-12-08T06:51:05.818Z,6.06
2018-12-08T06:53:34.199Z,6.10
2018-12-08T06:56:04.568Z,6.11
2018-12-08T06:58:32.954Z,6.16
2018-12-08T07:01:05.859Z,6.10
2018-12-08T07:03:34.291Z,6.10
2018-12-08T07:06:04.610Z,6.11
2018-12-08T07:08:33.032Z,6.16
2018-12-08T07:11:03.622Z,6.16
2018-12-08T07:13:32.065Z,6.17
2018-12-08T07:16:00.486Z,6.26
2018-12-08T07:18:28.883Z,6.21
2018-12-08T07:20:57.332Z,6.23
2018-12-08T07:23:25.720Z,6.21
2018-12-08T07:25:54.203Z,6.18
2018-12-08T07:28:22.636Z,6.30
2018-12-08T07:30:51.088Z,6.31
2018-12-08T07:33:19.475Z,6.35
2018-12-08T07:35:47.904Z,6.39
2018-12-08T07:38:16.293Z,6.42
2018-12-08T07:40:45.069Z,6.45
2018-12-08T07:43:13.478Z,6.44
2018-12-08T07:45:41.915Z,6.52
2018-12-08T07:48:10.328Z,6.54
2018-12-08T07:50:40.089Z,6.51
2018-12-08T07:53:08.492Z,6.54
2018-12-08T07:55:36.928Z,6.53
2018-12-08T07:58:07.179Z,6.62
2018-12-08T08:00:35.618Z,6.61
2018-12-08T08:03:04.834Z,6.56
2018-12-08T08:05:33.235Z,6.53
2018-12-08T08:08:03.687Z,6.61
2018-12-08T08:10:32.091Z,6.70
2018-12-08T08:13:00.499Z,6.73
2018-12-08T08:15:28.918Z,6.77
2018-12-08T08:17:57.338Z,6.78
2018-12-08T08:20:25.740Z,6.74
2018-12-08T08:22:54.233Z,6.85
2018-12-08T08:25:22.616Z,6.95
2018-12-08T08:27:51.045Z,7.07
2018-12-08T08:30:19.548Z,7.17
2018-12-08T08:32:47.965Z,7.30
2018-12-08T08:35:16.369Z,7.21
2018-12-08T08:37:44.815Z,7.30
2018-12-08T08:40:13.432Z,7.43
2018-12-08T08:42:41.856Z,7.47
2018-12-08T08:45:10.492Z,7.46
2018-12-08T08:47:38.907Z,7.54
2018-12-08T08:50:09.895Z,7.67
2018-12-08T08:52:38.355Z,7.63
2018-12-08T08:55:07.212Z,7.42
2018-12-08T08:57:35.729Z,7.53
2018-12-08T09:00:07.789Z,7.65
2018-12-08T09:02:36.205Z,7.63
2018-12-08T09:05:07.240Z,7.51
2018-12-08T09:07:35.637Z,7.46
2018-12-08T09:10:07.388Z,7.50
2018-12-08T09:12:35.811Z,7.54
2018-12-08T09:15:06.211Z,7.52
2018-12-08T09:17:34.640Z,7.52
2018-12-08T09:20:06.663Z,7.53
2018-12-08T09:22:35.120Z,7.54
2018-12-08T09:25:06.321Z,7.65
2018-12-08T09:27:34.712Z,7.64
2018-12-08T09:30:06.494Z,7.58
2018-12-08T09:32:35.245Z,7.72
2018-12-08T09:35:05.404Z,7.76
2018-12-08T09:37:33.808Z,7.65
2018-12-08T09:40:03.739Z,7.61
2018-12-08T09:42:32.156Z,7.67
2018-12-08T09:45:00.583Z,7.72
2018-12-08T09:47:28.993Z,7.77
2018-12-08T09:49:57.428Z,7.87
2018-12-08T09:52:25.819Z,7.87
2018-12-08T09:54:54.252Z,7.98
2018-12-08T09:57:22.662Z,8.01
2018-12-08T09:59:51.062Z,7.78
2018-12-08T10:02:19.817Z,7.87
2018-12-08T10:04:48.222Z,7.85
2018-12-08T10:07:16.689Z,7.95
2018-12-08T10:09:45.204Z,7.95
2018-12-08T10:12:13.618Z,8.00
2018-12-08T10:14:42.076Z,8.08
2018-12-08T10:17:10.492Z,8.09
2018-12-08T10:19:38.920Z,8.04
2018-12-08T10:22:07.324Z,8.06
2018-12-08T10:24:35.785Z,8.07
2018-12-08T10:27:05.093Z,8.07
2018-12-08T10:29:33.498Z,8.12
2018-12-08T10:32:03.633Z,8.04
2018-12-08T10:34:32.040Z,7.99
2018-12-08T10:37:00.473Z,8.00
2018-12-08T10:39:29.076Z,8.24
2018-12-08T10:41:57.498Z,8.27
2018-12-08T10:44:25.900Z,8.29
2018-12-08T10:46:54.332Z,8.28
2018-12-08T10:49:22.748Z,8.31
2018-12-08T10:51:51.576Z,8.41
2018-12-08T10:54:19.964Z,8.35
2018-12-08T10:56:48.369Z,8.35
2018-12-08T10:59:16.784Z,8.43
2018-12-08T11:01:50.550Z,8.38
2018-12-08T11:04:18.945Z,8.38
2018-12-08T11:06:47.391Z,8.35
2018-12-08T11:09:15.798Z,8.20
2018-12-08T11:11:44.221Z,8.30
2018-12-08T11:14:12.621Z,8.59
2018-12-08T11:16:41.145Z,8.81
2018-12-08T11:19:09.615Z,8.85
2018-12-08T11:21:38.440Z,8.65
2018-12-08T11:24:06.998Z,8.47
2018-12-08T11:26:35.429Z,8.31
2018-12-08T11:29:05.789Z,8.30
2018-12-08T11:31:34.218Z,8.45
2018-12-08T11:34:05.321Z,8.41
2018-12-08T11:36:33.875Z,8.62
2018-12-08T11:39:04.472Z,8.63
2018-12-08T11:41:32.882Z,8.64
2018-12-08T11:44:04.316Z,8.74
2018-12-08T11:46:32.744Z,8.85
2018-12-08T11:49:05.168Z,8.92
2018-12-08T11:51:33.572Z,8.75
2018-12-08T11:54:04.276Z,8.69
2018-12-08T11:56:32.708Z,8.65
2018-12-08T11:59:03.804Z,8.69
2018-12-08T12:01:32.224Z,8.62
2018-12-08T12:04:00.612Z,8.57
2018-12-08T12:06:29.037Z,8.55
2018-12-08T12:08:57.477Z,8.54
2018-12-08T12:11:25.921Z,8.58
2018-12-08T12:13:54.312Z,8.56
2018-12-08T12:16:23.006Z,8.56
2018-12-08T12:18:51.553Z,8.59
2018-12-08T12:21:19.936Z,8.62
2018-12-08T12:23:48.353Z,8.59
2018-12-08T12:26:16.812Z,8.48
2018-12-08T12:28:45.257Z,8.48
2018-12-08T12:31:13.655Z,8.54
2018-12-08T12:33:42.167Z,8.52
2018-12-08T12:36:10.580Z,8.51
2018-12-08T12:38:38.996Z,8.54
2018-12-08T12:41:10.316Z,8.62
2018-12-08T12:43:38.744Z,8.64
2018-12-08T12:46:07.120Z,8.61
2018-12-08T12:48:35.665Z,8.52
2018-12-08T12:51:05.796Z,8.50
2018-12-08T12:53:34.218Z,8.50
2018-12-08T12:56:05.455Z,8.54
2018-12-08T12:58:34.191Z,8.53
2018-12-08T13:01:04.360Z,8.55
2018-12-08T13:03:32.920Z,8.60
2018-12-08T13:06:03.428Z,8.63
2018-12-08T13:08:31.894Z,8.61
2018-12-08T13:11:00.324Z,8.66
2018-12-08T13:13:28.750Z,8.69
2018-12-08T13:15:57.381Z,8.71
2018-12-08T13:18:25.827Z,8.75
2018-12-08T13:20:54.220Z,8.72
2018-12-08T13:23:22.657Z,8.80
2018-12-08T13:25:51.053Z,8.77
2018-12-08T13:28:19.544Z,8.82
2018-12-08T13:30:47.999Z,8.75
2018-12-08T13:33:16.598Z,8.70
2018-12-08T13:35:53.323Z,8.72
2018-12-08T13:38:23.418Z,8.79
2018-12-08T13:40:52.072Z,9.09
2018-12-08T13:43:20.533Z,9.33
2018-12-08T13:45:49.322Z,9.19
2018-12-08T13:48:19.804Z,9.04
2018-12-08T13:50:48.680Z,8.79
2018-12-08T13:53:17.076Z,8.66
2018-12-08T13:55:45.515Z,8.60
2018-12-08T13:58:13.911Z,8.59
2018-12-08T14:00:43.491Z,8.54
2018-12-08T14:03:11.916Z,8.54
2018-12-08T14:05:41.721Z,8.52
2018-12-08T14:08:10.127Z,8.48
2018-12-08T14:10:38.545Z,8.52
2018-12-08T14:13:08.240Z,8.46
2018-12-08T14:15:36.644Z,8.48
2018-12-08T14:18:07.260Z,8.51
2018-12-08T14:20:35.915Z,8.38
2018-12-08T14:23:07.856Z,8.36
2018-12-08T14:25:36.281Z,8.34
2018-12-08T14:28:06.317Z,8.33
2018-12-08T14:30:34.744Z,8.27
2018-12-08T14:33:06.113Z,8.35
2018-12-08T14:35:34.515Z,8.38
2018-12-08T14:38:05.332Z,8.41
2018-12-08T14:40:33.768Z,8.38
2018-12-08T14:43:05.372Z,8.35
2018-12-08T14:45:33.772Z,8.28
2018-12-08T14:48:04.604Z,8.18
2018-12-08T14:50:32.996Z,8.09
2018-12-08T14:53:04.154Z,8.07
2018-12-08T14:55:32.556Z,8.10
2018-12-08T14:58:00.943Z,8.10
2018-12-08T15:00:29.388Z,8.08
2018-12-08T15:02:57.791Z,8.11
2018-12-08T15:05:26.401Z,8.05
2018-12-08T15:07:54.795Z,7.99
2018-12-08T15:10:23.184Z,7.99
2018-12-08T15:12:51.620Z,8.00
2018-12-08T15:15:20.023Z,7.96
2018-12-08T15:17:48.485Z,7.90
2018-12-08T15:20:17.436Z,7.84
2018-12-08T15:22:45.835Z,7.83
2018-12-08T15:25:14.415Z,7.89
2018-12-08T15:27:42.808Z,7.86
2018-12-08T15:30:11.630Z,7.90
2018-12-08T15:32:40.079Z,7.90
2018-12-08T15:35:10.878Z,7.91
2018-12-08T15:37:40.265Z,7.92
2018-12-08T15:40:10.423Z,7.87
2018-12-08T15:42:39.216Z,7.92
2018-12-08T15:45:11.063Z,7.91
2018-12-08T15:47:39.456Z,7.86
2018-12-08T15:50:10.039Z,7.88
2018-12-08T15:52:38.445Z,7.86
2018-12-08T15:55:07.123Z,7.88
2018-12-08T15:57:35.690Z,7.87
2018-12-08T16:00:10.027Z,7.89
2018-12-08T16:02:38.560Z,7.85
2018-12-08T16:05:07.800Z,7.86
2018-12-08T16:07:36.481Z,7.81
2018-12-08T16:10:06.415Z,7.74
2018-12-08T16:12:34.849Z,7.81
2018-12-08T16:15:06.129Z,7.86
2018-12-08T16:17:34.572Z,7.78
2018-12-08T16:20:07.597Z,7.77
2018-12-08T16:22:36.008Z,7.75
2018-12-08T16:25:05.400Z,7.77
2018-12-08T16:27:33.997Z,7.76
2018-12-08T16:30:04.658Z,7.78
2018-12-08T16:32:33.156Z,7.85
2018-12-08T16:35:03.616Z,7.86
2018-12-08T16:37:32.060Z,7.86
2018-12-08T16:40:00.456Z,7.88
2018-12-08T16:42:28.921Z,7.88
2018-12-08T16:44:57.332Z,7.81
2018-12-08T16:47:25.787Z,7.86
2018-12-08T16:49:54.188Z,7.90
2018-12-08T16:52:22.629Z,7.83
2018-12-08T16:54:51.024Z,7.88
2018-12-08T16:57:19.601Z,7.86
2018-12-08T16:59:48.013Z,7.88
2018-12-08T17:02:16.406Z,7.85
2018-12-08T17:04:44.867Z,7.90
2018-12-08T17:07:13.462Z,7.92
2018-12-08T17:09:43.760Z,7.89
2018-12-08T17:12:12.283Z,7.84
2018-12-08T17:14:40.723Z,7.87
2018-12-08T17:17:09.164Z,7.77
2018-12-08T17:19:37.664Z,7.74
2018-12-08T17:22:07.504Z,7.69
2018-12-08T17:24:35.960Z,7.73
2018-12-08T17:27:06.730Z,7.74
2018-12-08T17:29:35.193Z,7.79
2018-12-08T17:32:08.392Z,7.74
2018-12-08T17:34:36.800Z,7.71
2018-12-08T17:37:07.272Z,7.69
2018-12-08T17:39:35.743Z,7.69
2018-12-08T17:42:06.879Z,7.75
2018-12-08T17:44:35.320Z,7.71
2018-12-08T17:47:06.773Z,7.74
2018-12-08T17:49:37.068Z,7.76
2018-12-08T17:52:08.976Z,7.75
2018-12-08T17:54:37.625Z,7.77
2018-12-08T17:57:06.661Z,7.81
2018-12-08T17:59:35.068Z,7.84
2018-12-08T18:02:08.200Z,7.83
2018-12-08T18:04:36.637Z,7.84
2018-12-08T18:07:06.681Z,7.87
2018-12-08T18:09:35.470Z,7.87
2018-12-08T18:12:08.309Z,7.87
2018-12-08T18:14:36.751Z,7.91
2018-12-08T18:17:06.835Z,7.89
2018-12-08T18:19:35.401Z,7.95
2018-12-08T18:22:06.049Z,7.94
2018-12-08T18:24:34.575Z,7.96
2018-12-08T18:27:06.721Z,7.96
2018-12-08T18:29:35.208Z,8.00
2018-12-08T18:32:06.167Z,8.01
2018-12-08T18:34:34.632Z,7.99
2018-12-08T18:37:05.872Z,8.02
2018-12-08T18:39:34.329Z,8.06
2018-12-08T18:42:06.893Z,8.07
2018-12-08T18:44:35.389Z,8.12
2018-12-08T18:47:07.400Z,8.14
2018-12-08T18:49:35.868Z,8.14
2018-12-08T18:52:07.333Z,8.13
2018-12-08T18:54:35.781Z,8.16
2018-12-08T18:57:08.017Z,8.23
2018-12-08T18:59:36.936Z,8.24
2018-12-08T19:02:07.619Z,8.29
2018-12-08T19:04:36.960Z,8.28
2018-12-08T19:07:06.708Z,8.29
2018-12-08T19:09:35.105Z,8.29
2018-12-08T19:12:06.800Z,8.35
2018-12-08T19:14:35.335Z,8.40
2018-12-08T19:17:07.433Z,8.43
2018-12-08T19:19:35.862Z,8.47
2018-12-08T19:22:06.684Z,8.47
2018-12-08T19:24:35.072Z,8.46
2018-12-08T19:27:06.695Z,8.45
2018-12-08T19:29:35.085Z,8.46
2018-12-08T19:32:06.870Z,8.47
2018-12-08T19:34:35.276Z,8.48
2018-12-08T19:37:06.569Z,8.45
2018-12-08T19:39:34.956Z,8.50
2018-12-08T19:42:06.585Z,8.55
2018-12-08T19:44:34.976Z,8.50
2018-12-08T19:47:06.772Z,8.50
2018-12-08T19:49:35.188Z,8.49
2018-12-08T19:52:06.765Z,8.55
2018-12-08T19:54:35.164Z,8.53
2018-12-08T19:57:08.221Z,8.59
2018-12-08T19:59:38.760Z,8.59
2018-12-08T20:02:07.255Z,8.62
2018-12-08T20:04:35.648Z,8.63
2018-12-08T20:07:07.340Z,8.63
2018-12-08T20:09:35.732Z,8.58
2018-12-08T20:12:06.775Z,8.56
2018-12-08T20:14:35.184Z,8.61
2018-12-08T20:17:05.991Z,8.56
2018-12-08T20:19:34.392Z,8.58
2018-12-08T20:22:05.280Z,8.58
2018-12-08T20:24:33.692Z,8.58
2018-12-08T20:27:04.517Z,8.59
2018-12-08T20:29:32.916Z,8.60
2018-12-08T20:32:04.176Z,8.60
2018-12-08T20:34:32.604Z,8.59
2018-12-08T20:37:06.761Z,8.63
2018-12-08T20:39:35.180Z,8.60
2018-12-08T20:42:09.653Z,8.61
2018-12-08T20:44:38.060Z,8.62
2018-12-08T20:47:07.066Z,8.62
2018-12-08T20:49:35.456Z,8.64
2018-12-08T20:52:06.736Z,8.63
2018-12-08T20:54:35.155Z,8.65
2018-12-08T20:57:07.492Z,8.62
2018-12-08T20:59:35.982Z,8.65
2018-12-08T21:02:07.325Z,8.64
2018-12-08T21:04:35.733Z,8.68
2018-12-08T21:07:06.848Z,8.67
2018-12-08T21:09:35.250Z,8.71
2018-12-08T21:12:06.876Z,8.71
2018-12-08T21:14:35.276Z,8.75
2018-12-08T21:17:06.700Z,8.76
2018-12-08T21:19:35.093Z,8.73
2018-12-08T21:22:06.684Z,8.72
2018-12-08T21:24:35.093Z,8.74
2018-12-08T21:27:08.811Z,8.74
2018-12-08T21:29:37.212Z,8.72
2018-12-08T21:32:10.954Z,8.80
2018-12-08T21:34:39.693Z,8.74
2018-12-08T21:37:08.129Z,8.77
2018-12-08T21:39:36.529Z,8.74
2018-12-08T21:42:09.029Z,8.76
2018-12-08T21:44:37.427Z,8.76
2018-12-08T21:47:07.516Z,8.75
2018-12-08T21:49:35.915Z,8.80
2018-12-08T21:52:06.710Z,8.80
2018-12-08T21:54:35.172Z,8.81
2018-12-08T21:57:07.556Z,8.77
2018-12-08T21:59:36.004Z,8.79
2018-12-08T22:02:06.679Z,8.79
2018-12-08T22:04:35.120Z,8.85
2018-12-08T22:07:06.688Z,8.83
2018-12-08T22:09:35.127Z,8.86
2018-12-08T22:12:06.727Z,8.89
2018-12-08T22:14:39.338Z,8.89
2018-12-08T22:17:07.733Z,8.89
2018-12-08T22:19:36.152Z,8.91
2018-12-08T22:22:06.833Z,8.92
2018-12-08T22:24:35.233Z,8.93
2018-12-08T22:27:07.441Z,8.99
2018-12-08T22:29:35.848Z,9.01
2018-12-08T22:32:07.522Z,8.95
2018-12-08T22:34:35.920Z,8.87
2018-12-08T22:37:06.754Z,8.79
2018-12-08T22:39:35.154Z,8.70
2018-12-08T22:42:07.514Z,8.65
2018-12-08T22:44:35.927Z,8.67
2018-12-08T22:47:07.508Z,8.69
2018-12-08T22:49:35.939Z,8.77
2018-12-08T22:52:06.788Z,8.80
2018-12-08T22:54:35.222Z,8.81
2018-12-08T22:57:06.751Z,8.84
2018-12-08T22:59:35.183Z,8.79
2018-12-08T23:02:07.392Z,8.85
2018-12-08T23:04:35.828Z,8.82
2018-12-08T23:07:07.280Z,8.88
2018-12-08T23:09:35.716Z,8.85
2018-12-08T23:12:07.445Z,8.80
2018-12-08T23:14:35.909Z,8.80
2018-12-08T23:17:06.753Z,8.84
2018-12-08T23:19:35.193Z,8.78
2018-12-08T23:22:06.481Z,8.79
2018-12-08T23:24:34.872Z,8.76
2018-12-08T23:27:06.837Z,8.77
2018-12-08T23:29:35.236Z,8.77
2018-12-08T23:32:06.800Z,8.75
2018-12-08T23:34:35.336Z,8.74
2018-12-08T23:37:06.624Z,8.81
2018-12-08T23:39:38.879Z,8.80
2018-12-08T23:42:05.610Z,8.92
2018-12-08T23:44:34.013Z,8.88
2018-12-08T23:47:07.412Z,8.95
2018-12-08T23:49:35.833Z,8.98
2018-12-08T23:52:08.148Z,8.95
2018-12-08T23:54:36.556Z,8.88
2018-12-08T23:57:06.731Z,8.77
2018-12-08T23:59:35.128Z,8.78
